Time;durP1;ratioP1;P1;durP2;ratioP2;P2;SDS_P1;SDS_P2;PMS_P1;PMS_P2;Temp;Humidity;BMP_temperature;BMP_pressure;BME280_temperature;BME280_humidity;BME280_pressure;Samples;Min_cycle;Max_cycle;Signal;HPM_P1;HPM_P2
2023/04/28 00:02:04;;;;;;;;;;;;;;;6.39;90.01;100688.72;179862;1263;58327;-62
2023/04/28 00:06:10;;;;;;;;;;;;;;;6.47;89.62;100682.80;179615;1262;44415;-62
2023/04/28 00:10:13;;;;;;;;;;;;;;;6.39;91.35;100681.34;179566;1262;44656;-62
2023/04/28 00:14:16;;;;;;;;;;;;;;;6.35;92.06;100678.01;179669;1262;44349;-62
2023/04/28 00:18:20;;;;;;;;;;;;;;;6.43;91.84;100678.44;179689;1262;45627;-62
2023/04/28 00:22:23;;;;;;;;;;;;;;;6.54;91.93;100678.89;179529;1262;57020;-62
2023/04/28 00:26:26;;;;;;;;;;;;;;;6.65;91.46;100675.77;179737;1263;44817;-62
2023/04/28 00:30:30;;;;;;;;;;;;;;;6.76;90.81;100673.89;179741;1262;45657;-62
2023/04/28 00:34:36;;;;;;;;;;;;;;;6.88;90.59;100673.52;179776;1262;44887;-63
2023/04/28 00:38:39;;;;;;;;;;;;;;;7.01;90.61;100673.98;179743;1262;44355;-63
2023/04/28 00:47:34;;;;;;;;;;;;;;;7.11;90.75;100668.23;179637;1262;45813;-62
2023/04/28 00:51:37;;;;;;;;;;;;;;;7.17;89.52;100667.57;179716;1262;43346;-62
2023/04/28 00:55:40;;;;;;;;;;;;;;;7.22;88.46;100666.19;179570;1262;45746;-63
2023/04/28 00:59:43;;;;;;;;;;;;;;;7.20;87.67;100660.30;179665;1262;45812;-62
2023/04/28 01:03:47;;;;;;;;;;;;;;;7.15;88.28;100655.52;179414;1263;58211;-62
2023/04/28 01:07:52;;;;;;;;;;;;;;;7.13;88.08;100651.56;179669;1262;44697;-62
2023/04/28 01:11:57;;;;;;;;;;;;;;;7.14;87.94;100647.06;179710;1262;45784;-62
2023/04/28 01:16:00;;;;;;;;;;;;;;;7.16;88.37;100643.81;179832;1262;43373;-62
2023/04/28 01:20:03;;;;;;;;;;;;;;;7.13;88.30;100639.41;179685;1262;44522;-61
2023/04/28 01:24:06;;;;;;;;;;;;;;;7.08;88.08;100641.10;179591;1264;59553;-62
2023/04/28 01:28:09;;;;;;;;;;;;;;;6.99;88.98;100640.95;179706;1262;45120;-62
2023/04/28 01:32:12;;;;;;;;;;;;;;;6.90;89.45;100638.34;179634;1262;43533;-63
2023/04/28 01:36:15;;;;;;;;;;;;;;;6.87;90.24;100637.47;179646;1262;43330;-62
2023/04/28 01:40:19;;;;;;;;;;;;;;;6.87;91.12;100637.98;179665;1262;43330;-62
2023/04/28 01:44:22;;;;;;;;;;;;;;;6.92;91.44;100636.81;179750;1262;58537;-62
2023/04/28 01:48:52;;;;;;;;;;;;;;;6.90;91.90;100632.87;179621;1262;44642;-62
2023/04/28 01:52:55;;;;;;;;;;;;;;;6.92;92.27;100630.80;179731;1262;44955;-62
2023/04/28 01:57:03;;;;;;;;;;;;;;;6.91;92.50;100629.84;179623;1262;43665;-63
2023/04/28 02:01:08;;;;;;;;;;;;;;;6.85;92.19;100629.27;179730;1262;43336;-62
2023/04/28 02:05:11;;;;;;;;;;;;;;;6.85;92.00;100624.17;179754;1264;57292;-62
2023/04/28 02:09:14;;;;;;;;;;;;;;;6.89;91.95;100628.54;179652;1262;44508;-62
2023/04/28 02:13:16;;;;;;;;;;;;;;;6.93;91.78;100625.10;179720;1262;45963;-62
2023/04/28 02:17:19;;;;;;;;;;;;;;;6.92;91.27;100623.40;179737;1266;45911;-62
2023/04/28 02:21:47;;;;;;;;;;;;;;;6.92;91.11;100619.52;179767;1262;45099;-61
2023/04/28 02:25:49;;;;;;;;;;;;;;;6.91;91.11;100617.48;179653;1262;58367;-63
2023/04/28 02:29:52;;;;;;;;;;;;;;;6.87;91.16;100618.78;179702;1262;43258;-62
2023/04/28 02:33:58;;;;;;;;;;;;;;;6.85;91.45;100614.83;179622;1262;44612;-62
2023/04/28 02:38:01;;;;;;;;;;;;;;;6.81;91.51;100614.00;179599;1262;44338;-62
2023/04/28 02:42:04;;;;;;;;;;;;;;;6.76;91.71;100610.46;179726;1262;44382;-62
2023/04/28 02:46:07;;;;;;;;;;;;;;;6.65;92.11;100607.02;179485;1262;58876;-62
2023/04/28 02:50:10;;;;;;;;;;;;;;;6.58;92.32;100603.59;179603;1262;43608;-62
2023/04/28 02:54:13;;;;;;;;;;;;;;;6.50;92.56;100598.95;179581;1262;45746;-62
2023/04/28 02:58:16;;;;;;;;;;;;;;;6.43;92.78;100599.18;179610;1262;45773;-62
2023/04/28 03:02:21;;;;;;;;;;;;;;;6.38;93.11;100602.09;179251;1262;45805;-62
2023/04/28 03:06:27;;;;;;;;;;;;;;;6.37;93.09;100601.13;179330;1262;58202;-63
2023/04/28 03:10:30;;;;;;;;;;;;;;;6.33;93.03;100599.58;179151;1262;45738;-63
2023/04/28 03:14:33;;;;;;;;;;;;;;;6.27;93.20;100600.27;179023;1262;45804;-62
2023/04/28 03:18:35;;;;;;;;;;;;;;;6.25;93.26;100608.66;178855;1262;45795;-63
2023/04/28 03:22:39;;;;;;;;;;;;;;;6.22;93.25;100601.48;178808;1263;44819;-62
2023/04/28 03:26:42;;;;;;;;;;;;;;;6.10;94.06;100599.33;179565;1262;59500;-62
2023/04/28 03:30:49;;;;;;;;;;;;;;;6.12;94.17;100599.90;179766;1262;44514;-62
2023/04/28 03:34:53;;;;;;;;;;;;;;;6.13;94.62;100594.92;179846;1262;45776;-62
2023/04/28 03:38:56;;;;;;;;;;;;;;;6.16;94.30;100595.66;179817;1262;44138;-62
2023/04/28 03:43:07;;;;;;;;;;;;;;;6.17;94.18;100591.70;179719;1262;43578;-62
2023/04/28 03:47:09;;;;;;;;;;;;;;;6.20;93.78;100586.59;179776;1262;58170;-61
2023/04/28 03:51:12;;;;;;;;;;;;;;;6.22;93.25;100581.05;180051;1262;43557;-61
2023/04/28 03:55:17;;;;;;;;;;;;;;;6.23;93.41;100581.52;180204;1262;45003;-62
2023/04/28 03:59:20;;;;;;;;;;;;;;;6.30;94.13;100573.66;180143;1266;43687;-62
2023/04/28 04:03:25;;;;;;;;;;;;;;;6.33;94.48;100574.39;179873;1262;45781;-63
2023/04/28 04:07:33;;;;;;;;;;;;;;;6.39;94.49;100574.05;179851;1262;59725;-63
2023/04/28 04:11:36;;;;;;;;;;;;;;;6.43;94.58;100575.36;179739;1262;45763;-63
2023/04/28 04:15:39;;;;;;;;;;;;;;;6.50;94.34;100569.00;179862;1262;45106;-62
2023/04/28 04:19:42;;;;;;;;;;;;;;;6.55;94.05;100572.36;179897;1262;45745;-61
2023/04/28 04:23:50;;;;;;;;;;;;;;;6.56;93.39;100568.27;179763;1262;45720;-62
2023/04/28 04:27:56;;;;;;;;;;;;;;;6.55;93.82;100570.27;179860;1262;58759;-62
2023/04/28 04:32:05;;;;;;;;;;;;;;;6.58;93.48;100571.17;179733;1262;45847;-62
2023/04/28 04:36:08;;;;;;;;;;;;;;;6.64;93.92;100571.66;179764;1262;43230;-62
2023/04/28 04:40:11;;;;;;;;;;;;;;;6.66;94.24;100570.48;179928;1262;45825;-62
2023/04/28 04:44:40;;;;;;;;;;;;;;;6.73;94.44;100570.25;179920;1262;44591;-63
2023/04/28 04:48:43;;;;;;;;;;;;;;;6.78;95.07;100566.95;179928;1264;58217;-62
2023/04/28 04:52:48;;;;;;;;;;;;;;;6.78;95.45;100563.06;180125;1262;43267;-63
2023/04/28 04:56:51;;;;;;;;;;;;;;;6.88;95.36;100554.69;180043;1262;44699;-60
2023/04/28 05:00:55;;;;;;;;;;;;;;;7.04;94.73;100551.78;180081;1262;44848;-64
2023/04/28 05:04:58;;;;;;;;;;;;;;;7.21;94.65;100548.27;180212;1266;44051;-63
2023/04/28 05:09:19;;;;;;;;;;;;;;;7.45;94.02;100544.95;179874;1262;56942;-63
2023/04/28 05:13:22;;;;;;;;;;;;;;;7.64;94.25;100541.27;179861;1262;45759;-62
2023/04/28 05:17:51;;;;;;;;;;;;;;;7.84;93.62;100541.35;179788;1262;45428;-63
2023/04/28 05:21:55;;;;;;;;;;;;;;;8.08;92.03;100540.33;179722;1262;43356;-63
2023/04/28 05:26:05;;;;;;;;;;;;;;;8.25;90.30;100537.99;179914;1262;45032;-63
2023/04/28 05:30:10;;;;;;;;;;;;;;;8.36;90.00;100536.84;179780;1262;57180;-62
2023/04/28 05:34:12;;;;;;;;;;;;;;;8.43;89.23;100535.51;179892;1262;45798;-63
2023/04/28 05:38:16;;;;;;;;;;;;;;;8.50;89.19;100538.60;179975;1262;43460;-63
2023/04/28 05:42:20;;;;;;;;;;;;;;;8.55;88.76;100536.14;179843;1262;45799;-63
2023/04/28 05:46:24;;;;;;;;;;;;;;;8.66;88.84;100536.42;179835;1262;43511;-63
2023/04/28 05:50:33;;;;;;;;;;;;;;;8.89;88.38;100536.39;179905;1261;58229;-63
2023/04/28 05:54:41;;;;;;;;;;;;;;;9.16;86.50;100529.09;179764;1262;45722;-64
2023/04/28 05:58:44;;;;;;;;;;;;;;;9.35;85.26;100523.05;179938;1262;45198;-63
2023/04/28 06:02:47;;;;;;;;;;;;;;;9.58;84.45;100518.19;179817;1262;46059;-63
2023/04/28 06:06:57;;;;;;;;;;;;;;;9.63;82.84;100520.35;178799;1262;86555;-88
2023/04/28 06:11:01;;;;;;;;;;;;;;;9.60;81.37;100517.39;176216;1262;289725;-88
2023/04/28 06:15:04;;;;;;;;;;;;;;;9.60;81.96;100514.54;176584;1267;45902;-87
2023/04/28 06:19:07;;;;;;;;;;;;;;;9.64;83.12;100513.38;176750;1269;45972;-88
2023/04/28 06:23:10;;;;;;;;;;;;;;;9.60;81.92;100508.67;176155;1263;45819;-89
2023/04/28 06:27:13;;;;;;;;;;;;;;;9.60;82.25;100510.15;176502;1262;45902;-88
2023/04/28 06:31:17;;;;;;;;;;;;;;;9.71;82.65;100506.80;176170;1260;58324;-88
2023/04/28 06:35:21;;;;;;;;;;;;;;;9.97;84.32;100506.50;176608;1260;45980;-88
2023/04/28 06:39:25;;;;;;;;;;;;;;;10.14;83.01;100503.92;176851;1266;45905;-88
2023/04/28 06:43:28;;;;;;;;;;;;;;;10.44;82.14;100503.08;176581;1267;45862;-89
2023/04/28 06:47:31;;;;;;;;;;;;;;;10.62;80.15;100504.91;176617;1263;45803;-87
2023/04/28 06:51:34;;;;;;;;;;;;;;;10.84;78.43;100496.11;176199;1264;59328;-87
2023/04/28 06:55:37;;;;;;;;;;;;;;;11.12;79.10;100491.56;176205;1262;45959;-87
2023/04/28 06:59:42;;;;;;;;;;;;;;;11.26;78.36;100488.11;176175;1267;45898;-87
2023/04/28 07:03:46;;;;;;;;;;;;;;;11.35;77.30;100480.64;176133;1266;45900;-87
2023/04/28 07:07:49;;;;;;;;;;;;;;;11.50;77.48;100475.19;176397;1264;45912;-88
2023/04/28 07:11:53;;;;;;;;;;;;;;;11.66;75.30;100474.98;176237;1263;59429;-88
2023/04/28 07:15:58;;;;;;;;;;;;;;;11.76;74.78;100471.05;176890;1262;45930;-88
2023/04/28 07:20:03;;;;;;;;;;;;;;;11.96;74.01;100469.11;176438;1266;46058;-88
2023/04/28 07:24:07;;;;;;;;;;;;;;;12.29;73.97;100465.09;176172;1264;45814;-88
2023/04/28 07:28:11;;;;;;;;;;;;;;;12.48;71.54;100460.73;176391;1266;45861;-89
2023/04/28 07:32:14;;;;;;;;;;;;;;;12.62;70.79;100453.68;176451;1264;59477;-88
2023/04/28 07:36:18;;;;;;;;;;;;;;;12.91;70.31;100447.56;176252;1263;45799;-87
2023/04/28 07:40:21;;;;;;;;;;;;;;;13.14;68.13;100443.02;176156;1264;45837;-86
2023/04/28 07:44:25;;;;;;;;;;;;;;;13.31;67.11;100436.17;175926;1264;45912;-86
2023/04/28 07:48:28;;;;;;;;;;;;;;;13.37;65.86;100430.68;176225;1266;45807;-87
2023/04/28 07:52:32;;;;;;;;;;;;;;;13.47;66.51;100431.18;176113;1262;58123;-86
2023/04/28 07:56:37;;;;;;;;;;;;;;;13.72;66.31;100434.46;176374;1263;45913;-86
2023/04/28 08:00:40;;;;;;;;;;;;;;;13.87;66.03;100428.27;176065;1264;45813;-87
2023/04/28 08:04:43;;;;;;;;;;;;;;;14.07;65.37;100423.33;176095;1263;45827;-86
2023/04/28 08:08:46;;;;;;;;;;;;;;;14.28;63.86;100423.52;176973;1262;45901;-88
2023/04/28 08:12:50;;;;;;;;;;;;;;;14.48;61.31;100418.22;176071;1263;58474;-88
2023/04/28 08:16:53;;;;;;;;;;;;;;;14.75;60.71;100413.06;176325;1264;45894;-87
2023/04/28 08:20:58;;;;;;;;;;;;;;;14.89;60.48;100411.98;176158;1263;45923;-88
2023/04/28 08:25:01;;;;;;;;;;;;;;;15.03;59.42;100400.48;176240;1264;45786;-88
2023/04/28 08:29:04;;;;;;;;;;;;;;;15.20;58.47;100395.23;176052;1261;45828;-87
2023/04/28 08:33:07;;;;;;;;;;;;;;;15.43;59.48;100393.64;176302;1263;59424;-88
2023/04/28 08:37:12;;;;;;;;;;;;;;;15.55;58.53;100393.76;176080;1262;45904;-87
2023/04/28 08:41:16;;;;;;;;;;;;;;;15.69;58.91;100389.30;176297;1264;45799;-88
2023/04/28 08:45:22;;;;;;;;;;;;;;;15.85;57.48;100383.95;176309;1267;45792;-87
2023/04/28 08:49:31;;;;;;;;;;;;;;;15.94;59.16;100378.00;176327;1266;45822;-85
2023/04/28 08:58:30;;;;;;;;;;;;;;;16.19;58.33;100374.43;141916;1268;44361;-89
2023/04/28 09:02:36;;;;;;;;;;;;;;;16.13;58.43;100361.02;177917;1263;45921;-90
2023/04/28 09:06:41;;;;;;;;;;;;;;;16.25;57.19;100353.66;177980;1263;45966;-90
2023/04/28 09:10:44;;;;;;;;;;;;;;;16.43;58.07;100351.52;178786;1262;44655;-89
2023/04/28 09:14:57;;;;;;;;;;;;;;;16.50;59.48;100344.08;177782;1262;58114;-90
2023/04/28 09:19:00;;;;;;;;;;;;;;;16.80;58.42;100337.20;177612;1262;46143;-90
2023/04/28 09:23:15;;;;;;;;;;;;;;;16.94;56.70;100332.79;177444;1262;45884;-89
2023/04/28 09:27:25;;;;;;;;;;;;;;;17.05;55.42;100325.06;177465;1261;46021;-90
2023/04/28 09:31:28;;;;;;;;;;;;;;;17.12;55.78;100321.61;177493;1265;46016;-92
2023/04/28 09:35:42;;;;;;;;;;;;;;;17.23;55.01;100319.02;177776;1265;58095;-87
2023/04/28 09:39:46;;;;;;;;;;;;;;;17.32;54.07;100311.05;177612;1265;45960;-90
2023/04/28 09:43:49;;;;;;;;;;;;;;;17.42;53.66;100304.22;177536;1261;45822;-89
2023/04/28 09:52:36;;;;;;;;;;;;;;;17.68;53.77;100285.86;177563;1262;45861;-90
2023/04/28 10:01:21;;;;;;;;;;;;;;;17.95;54.49;100269.08;176042;1264;45928;-87
2023/04/28 10:05:25;;;;;;;;;;;;;;;17.97;53.41;100264.06;175624;1270;46052;-87
2023/04/28 10:09:30;;;;;;;;;;;;;;;18.05;53.57;100254.91;176148;1267;45795;-87
2023/04/28 10:13:34;;;;;;;;;;;;;;;18.15;52.94;100239.94;175923;1265;45763;-87
2023/04/28 10:17:37;;;;;;;;;;;;;;;18.25;55.11;100238.13;176328;1266;58075;-87
2023/04/28 10:21:43;;;;;;;;;;;;;;;18.23;53.98;100235.48;176048;1264;45912;-87
2023/04/28 10:25:52;;;;;;;;;;;;;;;18.26;52.12;100230.04;176445;1270;45915;-87
2023/04/28 10:30:14;;;;;;;;;;;;;;;18.20;52.39;100228.79;176142;1267;45912;-87
2023/04/28 10:34:27;;;;;;;;;;;;;;;18.32;53.51;100220.72;176073;1264;45798;-87
2023/04/28 10:38:33;;;;;;;;;;;;;;;18.41;52.44;100214.49;175706;1264;60251;-87
2023/04/28 10:42:53;;;;;;;;;;;;;;;18.49;52.50;100216.62;176071;1265;45908;-87
2023/04/28 10:47:01;;;;;;;;;;;;;;;18.68;52.65;100214.66;175647;1264;45967;-87
2023/04/28 10:51:24;;;;;;;;;;;;;;;;;;;;;
2023/04/28 10:55:36;;;;;;;;;;;;;;;18.92;49.25;100199.10;175911;1267;45782;-87
2023/04/28 10:59:39;;;;;;;;;;;;;;;19.02;50.71;100197.40;175899;1269;58909;-87
2023/04/28 11:04:16;;;;;;;;;;;;;;;19.26;48.53;100190.90;175779;1264;45919;-87
2023/04/28 11:08:25;;;;;;;;;;;;;;;19.36;47.60;100186.27;176739;1264;46265;-84
2023/04/28 11:12:28;;;;;;;;;;;;;;;19.36;49.31;100179.45;175711;1264;45895;-86
2023/04/28 11:16:32;;;;;;;;;;;;;;;19.52;47.63;100171.05;175693;1264;45957;-86
2023/04/28 11:20:36;;;;;;;;;;;;;;;19.71;48.88;100166.79;175819;1264;59060;-86
2023/04/28 11:24:38;;;;;;;;;;;;;;;19.91;49.77;100167.83;175970;1264;45918;-86
2023/04/28 11:28:52;;;;;;;;;;;;;;;20.07;49.57;100161.41;175936;1265;46477;-86
2023/04/28 11:32:56;;;;;;;;;;;;;;;20.23;49.45;100160.40;175891;1264;45893;-86
2023/04/28 11:37:00;;;;;;;;;;;;;;;20.34;47.20;100159.64;175526;1265;45915;-86
2023/04/28 11:41:03;;;;;;;;;;;;;;;20.35;46.93;100153.38;175639;1265;59774;-86
2023/04/28 11:45:06;;;;;;;;;;;;;;;20.44;46.86;100151.75;175484;1269;44418;-86
2023/04/28 11:49:09;;;;;;;;;;;;;;;20.44;46.31;100151.16;175454;1269;45969;-86
2023/04/28 11:53:12;;;;;;;;;;;;;;;20.62;48.42;100153.69;175911;1264;45807;-86
2023/04/28 11:57:22;;;;;;;;;;;;;;;20.80;48.41;100147.15;175845;1269;45781;-86
2023/04/28 12:01:25;;;;;;;;;;;;;;;20.99;46.99;100139.10;176012;1264;57390;-86
2023/04/28 12:05:33;;;;;;;;;;;;;;;20.97;46.44;100137.21;176006;1264;45868;-86
2023/04/28 12:09:43;;;;;;;;;;;;;;;20.84;45.87;100141.52;175905;1265;46015;-86
2023/04/28 12:14:05;;;;;;;;;;;;;;;20.72;47.00;100139.96;176110;1265;45901;-86
2023/04/28 12:18:10;;;;;;;;;;;;;;;20.74;45.92;100131.25;175603;1265;45813;-86
2023/04/28 12:22:16;;;;;;;;;;;;;;;20.83;47.04;100129.04;176694;1267;59084;-86
2023/04/28 12:26:25;;;;;;;;;;;;;;;20.95;46.12;100128.21;175702;1266;45838;-85
2023/04/28 12:30:31;;;;;;;;;;;;;;;21.14;48.19;100123.71;175757;1264;45890;-86
2023/04/28 12:34:35;;;;;;;;;;;;;;;21.25;46.85;100114.82;175704;1264;45777;-85
2023/04/28 12:38:49;;;;;;;;;;;;;;;21.33;46.78;100115.23;176117;1264;45775;-85
2023/04/28 12:42:52;;;;;;;;;;;;;;;21.39;46.44;100109.42;175889;1265;58172;-85
2023/04/28 12:46:55;;;;;;;;;;;;;;;21.60;45.01;100106.64;175823;1269;45948;-85
2023/04/28 12:50:58;;;;;;;;;;;;;;;21.45;42.04;100098.30;176077;1265;45806;-86
2023/04/28 12:55:01;;;;;;;;;;;;;;;21.19;42.67;100096.06;175932;1265;45918;-86
2023/04/28 12:59:04;;;;;;;;;;;;;;;20.66;43.65;100095.31;176030;1265;45845;-85
2023/04/28 13:03:07;;;;;;;;;;;;;;;20.07;45.38;100093.70;175827;1268;57719;-85
2023/04/28 13:07:11;;;;;;;;;;;;;;;19.92;44.75;100089.58;176685;1269;45877;-85
2023/04/28 13:11:15;;;;;;;;;;;;;;;20.08;46.29;100090.89;178370;1264;45692;-85
2023/04/28 13:15:24;;;;;;;;;;;;;;;20.24;43.78;100086.55;177700;1264;46250;-85
2023/04/28 13:19:29;;;;;;;;;;;;;;;20.52;45.15;100087.34;176908;1269;45777;-85
2023/04/28 13:23:31;;;;;;;;;;;;;;;20.71;44.74;100084.61;176661;1264;59084;-85
2023/04/28 13:27:35;;;;;;;;;;;;;;;20.80;44.61;100079.52;177023;1264;45836;-84
2023/04/28 13:31:40;;;;;;;;;;;;;;;20.74;45.05;100073.33;177773;1265;45793;-85
2023/04/28 13:35:43;;;;;;;;;;;;;;;20.82;44.31;100067.66;178759;1264;44000;-84
2023/04/28 13:39:46;;;;;;;;;;;;;;;20.72;45.24;100066.05;177766;1264;45775;-85
2023/04/28 13:43:49;;;;;;;;;;;;;;;20.50;45.27;100060.48;178471;1265;57557;-84
2023/04/28 13:47:53;;;;;;;;;;;;;;;20.38;46.65;100060.23;177266;1265;43846;-84
2023/04/28 13:51:56;;;;;;;;;;;;;;;20.29;45.04;100050.58;176961;1264;45883;-84
2023/04/28 13:55:59;;;;;;;;;;;;;;;20.10;45.54;100041.27;176370;1264;45883;-83
2023/04/28 14:00:03;;;;;;;;;;;;;;;19.98;46.08;100041.64;176025;1265;47004;-83
2023/04/28 14:04:06;;;;;;;;;;;;;;;19.85;47.66;100038.38;175993;1267;57669;-84
2023/04/28 14:08:09;;;;;;;;;;;;;;;19.79;48.17;100035.02;176316;1265;45832;-85
2023/04/28 14:12:14;;;;;;;;;;;;;;;19.78;48.90;100038.58;176662;1264;45665;-85
2023/04/28 14:16:17;;;;;;;;;;;;;;;19.73;47.87;100033.67;176605;1264;45806;-86
2023/04/28 14:20:20;;;;;;;;;;;;;;;19.68;46.98;100027.78;176253;1264;45894;-86
2023/04/28 14:24:23;;;;;;;;;;;;;;;19.58;48.02;100031.94;176186;1264;58387;-86
2023/04/28 14:28:27;;;;;;;;;;;;;;;19.50;47.37;100021.38;175965;1265;45892;-86
2023/04/28 14:32:30;;;;;;;;;;;;;;;19.48;47.05;100016.74;176356;1265;45836;-87
2023/04/28 14:36:33;;;;;;;;;;;;;;;19.50;48.85;100012.02;176385;1265;45983;-86
2023/04/28 14:40:36;;;;;;;;;;;;;;;19.53;49.52;100010.70;177090;1265;45941;-85
2023/04/28 14:44:39;;;;;;;;;;;;;;;19.45;49.84;100005.21;176448;1269;59787;-86
2023/04/28 14:48:42;;;;;;;;;;;;;;;19.41;50.62;100006.10;176093;1266;45824;-86
2023/04/28 14:52:45;;;;;;;;;;;;;;;19.38;51.44;100004.98;175571;1267;46021;-86
2023/04/28 14:56:49;;;;;;;;;;;;;;;19.37;50.43;100002.30;175735;1269;45963;-86
2023/04/28 15:00:52;;;;;;;;;;;;;;;19.32;48.89;99998.48;175886;1265;45806;-85
2023/04/28 15:04:55;;;;;;;;;;;;;;;19.32;48.90;100001.39;176034;1265;58104;-85
2023/04/28 15:09:00;;;;;;;;;;;;;;;19.30;49.06;99992.36;175939;1264;45857;-84
2023/04/28 15:13:03;;;;;;;;;;;;;;;19.31;50.02;99988.67;175798;1267;45991;-85
2023/04/28 15:17:06;;;;;;;;;;;;;;;19.32;48.06;99985.66;175925;1265;46015;-86
2023/04/28 15:21:09;;;;;;;;;;;;;;;19.35;48.53;99980.58;176015;1264;47785;-86
2023/04/28 15:25:12;;;;;;;;;;;;;;;19.35;51.36;99977.38;175860;1264;59465;-86
2023/04/28 15:29:15;;;;;;;;;;;;;;;19.42;51.49;99973.06;176140;1264;46005;-85
2023/04/28 15:33:18;;;;;;;;;;;;;;;19.48;52.45;99972.64;176033;1264;45915;-86
2023/04/28 15:37:36;;;;;;;;;;;;;;;19.61;53.19;99972.95;176285;1264;45910;-86
2023/04/28 15:41:39;;;;;;;;;;;;;;;19.62;55.09;99971.34;175955;1265;45800;-86
2023/04/28 15:45:45;;;;;;;;;;;;;;;19.59;55.16;99967.55;176110;1265;59475;-86
2023/04/28 15:49:49;;;;;;;;;;;;;;;19.54;53.93;99959.54;176543;1270;45810;-86
2023/04/28 15:53:54;;;;;;;;;;;;;;;19.43;53.22;99961.39;176011;1265;45980;-85
2023/04/28 15:57:58;;;;;;;;;;;;;;;19.32;53.00;99951.82;176042;1264;45911;-86
2023/04/28 16:02:01;;;;;;;;;;;;;;;19.18;52.65;99950.25;175600;1264;45918;-86
2023/04/28 16:06:07;;;;;;;;;;;;;;;19.07;51.34;99941.38;175901;1264;60299;-86
2023/04/28 16:10:14;;;;;;;;;;;;;;;18.97;52.44;99940.46;175568;1268;45861;-85
2023/04/28 16:14:17;;;;;;;;;;;;;;;18.87;52.66;99937.17;175592;1264;45804;-86
2023/04/28 16:18:20;;;;;;;;;;;;;;;18.79;52.65;99942.42;175655;1263;45781;-86
2023/04/28 16:22:24;;;;;;;;;;;;;;;18.75;53.41;99938.48;176098;1265;45637;-86
2023/04/28 16:26:27;;;;;;;;;;;;;;;18.70;55.54;99936.52;175826;1270;57143;-84
2023/04/28 16:30:30;;;;;;;;;;;;;;;18.66;56.86;99931.75;175920;1267;45951;-86
2023/04/28 16:34:33;;;;;;;;;;;;;;;18.63;56.72;99930.55;175857;1265;45935;-86
2023/04/28 16:38:36;;;;;;;;;;;;;;;18.59;56.50;99926.89;176692;1264;45855;-87
2023/04/28 16:42:40;;;;;;;;;;;;;;;18.56;55.37;99925.27;177699;1265;45873;-85
2023/04/28 16:56:02;;;;;;;;;;;;;;;18.09;55.56;99928.19;151436;1262;43827;-60
2023/04/28 17:00:05;;;;;;;;;;;;;;;17.76;55.32;99930.67;181260;1263;43618;-60
2023/04/28 17:04:07;;;;;;;;;;;;;;;17.49;56.06;99925.54;181228;1262;44881;-60
2023/04/28 17:08:10;;;;;;;;;;;;;;;17.24;56.88;99922.52;181299;1266;57867;-63
2023/04/28 17:12:13;;;;;;;;;;;;;;;17.07;57.30;99923.00;181258;1262;43414;-60
2023/04/28 17:16:16;;;;;;;;;;;;;;;16.94;57.07;99919.23;181295;1262;42974;-60
2023/04/28 17:20:20;;;;;;;;;;;;;;;16.88;57.89;99919.42;181344;1262;43604;-60
2023/04/28 17:24:23;;;;;;;;;;;;;;;16.82;58.23;99920.99;181202;1262;43559;-62
2023/04/28 17:28:42;;;;;;;;;;;;;;;16.68;58.77;99917.02;181262;1262;58067;-60
2023/04/28 17:32:45;;;;;;;;;;;;;;;16.46;58.93;99919.65;181299;1262;43540;-61
2023/04/28 17:36:48;;;;;;;;;;;;;;;16.23;59.52;99917.24;181280;1262;42964;-61
2023/04/28 17:40:51;;;;;;;;;;;;;;;16.06;60.21;99918.68;181223;1264;42941;-60
2023/04/28 17:44:53;;;;;;;;;;;;;;;15.90;60.70;99919.04;181212;1262;43713;-63
2023/04/28 17:48:56;;;;;;;;;;;;;;;15.74;61.48;99920.52;181281;1262;58042;-63
2023/04/28 17:52:59;;;;;;;;;;;;;;;15.65;61.98;99923.85;181314;1266;43512;-63
2023/04/28 17:57:19;;;;;;;;;;;;;;;15.59;62.51;99932.37;181279;1262;43588;-63
2023/04/28 18:01:22;;;;;;;;;;;;;;;15.55;62.83;99932.30;181304;1263;42910;-63
2023/04/28 18:05:25;;;;;;;;;;;;;;;15.48;62.70;99927.96;181177;1263;43402;-63
2023/04/28 18:09:30;;;;;;;;;;;;;;;15.48;63.11;99928.54;181241;1263;58127;-63
2023/04/28 18:13:33;;;;;;;;;;;;;;;15.44;63.12;99926.80;181068;1262;193611;-63
2023/04/28 18:17:36;;;;;;;;;;;;;;;15.42;63.14;99926.33;181231;1262;42878;-63
2023/04/28 18:21:39;;;;;;;;;;;;;;;15.40;63.25;99931.70;181276;1262;42947;-63
2023/04/28 18:25:42;;;;;;;;;;;;;;;15.38;63.48;99929.44;181230;1263;43576;-63
2023/04/28 18:29:45;;;;;;;;;;;;;;;15.33;63.27;99928.26;181280;1262;57836;-63
2023/04/28 18:33:50;;;;;;;;;;;;;;;15.31;63.52;99927.55;181256;1262;43517;-63
2023/04/28 18:37:53;;;;;;;;;;;;;;;15.26;63.98;99929.11;181270;1263;43466;-63
2023/04/28 18:41:57;;;;;;;;;;;;;;;15.23;64.14;99930.47;181228;1262;42995;-63
2023/04/28 18:46:03;;;;;;;;;;;;;;;15.19;64.74;99927.52;181287;1264;42873;-63
2023/04/28 18:50:06;;;;;;;;;;;;;;;15.17;65.21;99930.83;181206;1264;58015;-63
2023/04/28 18:54:08;;;;;;;;;;;;;;;15.12;65.89;99932.71;181279;1263;42957;-63
2023/04/28 18:58:13;;;;;;;;;;;;;;;15.07;67.02;99932.95;181256;1262;44193;-63
2023/04/28 19:02:17;;;;;;;;;;;;;;;14.99;67.37;99936.40;180981;1258;82679;-86
2023/04/28 19:06:20;;;;;;;;;;;;;;;14.90;67.24;99933.59;180861;1261;43497;-84
2023/04/28 19:10:23;;;;;;;;;;;;;;;14.84;67.43;99933.30;180754;1262;57350;-84
2023/04/28 19:14:26;;;;;;;;;;;;;;;14.79;67.49;99938.39;180977;1260;43489;-87
2023/04/28 19:18:30;;;;;;;;;;;;;;;14.71;67.43;99935.01;180873;1260;43578;-86
2023/04/28 19:22:34;;;;;;;;;;;;;;;14.65;67.39;99932.77;180831;1260;43959;-86
2023/04/28 19:26:39;;;;;;;;;;;;;;;14.60;67.75;99933.39;180812;1261;43634;-86
2023/04/28 19:30:42;;;;;;;;;;;;;;;14.55;67.85;99934.77;180800;1260;58127;-86
2023/04/28 19:34:45;;;;;;;;;;;;;;;14.49;68.18;99930.95;180820;1260;43484;-86
2023/04/28 19:38:47;;;;;;;;;;;;;;;14.46;68.28;99931.19;180860;1260;44021;-86
2023/04/28 19:42:50;;;;;;;;;;;;;;;14.41;68.42;99923.61;180817;1260;43551;-85
2023/04/28 19:46:53;;;;;;;;;;;;;;;14.34;68.75;99926.01;180841;1261;43503;-85
2023/04/28 19:50:56;;;;;;;;;;;;;;;14.29;69.29;99926.86;180885;1260;59263;-85
2023/04/28 19:55:00;;;;;;;;;;;;;;;14.26;69.60;99925.08;180919;1262;43762;-85
2023/04/28 19:59:03;;;;;;;;;;;;;;;14.20;69.91;99923.17;180841;1260;44795;-85
2023/04/28 20:03:07;;;;;;;;;;;;;;;14.15;70.42;99927.95;180807;1260;43618;-85
2023/04/28 20:07:10;;;;;;;;;;;;;;;14.11;71.29;99927.95;181015;1261;43908;-85
2023/04/28 20:11:26;;;;;;;;;;;;;;;13.99;73.28;99929.05;180897;1262;59043;-86
2023/04/28 20:15:29;;;;;;;;;;;;;;;13.79;74.08;99927.45;180845;1260;43657;-86
2023/04/28 20:19:33;;;;;;;;;;;;;;;13.58;75.92;99930.42;180918;1260;43789;-87
2023/04/28 20:23:36;;;;;;;;;;;;;;;13.45;77.17;99930.13;180809;1260;43864;-86
2023/04/28 20:27:39;;;;;;;;;;;;;;;13.40;77.19;99929.88;180800;1260;43576;-86
2023/04/28 20:31:43;;;;;;;;;;;;;;;13.36;77.53;99929.73;180781;1262;58346;-85
2023/04/28 20:35:46;;;;;;;;;;;;;;;13.33;77.34;99924.38;180768;1261;43737;-86
2023/04/28 20:39:49;;;;;;;;;;;;;;;13.26;77.57;99922.88;180896;1260;43883;-85
2023/04/28 20:43:53;;;;;;;;;;;;;;;13.16;78.94;99922.29;180958;1261;43827;-86
2023/04/28 20:47:56;;;;;;;;;;;;;;;13.10;79.29;99919.30;180865;1260;43757;-86
2023/04/28 20:52:17;;;;;;;;;;;;;;;13.08;79.23;99917.38;181062;1262;59642;-87
2023/04/28 20:56:20;;;;;;;;;;;;;;;13.09;79.63;99917.95;180988;1260;43569;-87
2023/04/28 21:00:24;;;;;;;;;;;;;;;13.10;79.64;99910.42;181040;1261;43626;-86
2023/04/28 21:04:27;;;;;;;;;;;;;;;13.03;80.38;99909.29;180899;1261;44139;-87
2023/04/28 21:08:31;;;;;;;;;;;;;;;12.90;81.23;99907.20;180878;1260;43550;-87
2023/04/28 21:12:33;;;;;;;;;;;;;;;12.78;81.70;99909.61;180921;1260;59012;-87
2023/04/28 21:16:37;;;;;;;;;;;;;;;12.70;82.00;99905.13;180942;1261;43565;-87
2023/04/28 21:20:40;;;;;;;;;;;;;;;12.68;82.10;99904.06;181064;1260;43562;-87